Time;durP1;ratioP1;P1;durP2;ratioP2;P2;SDS_P1;SDS_P2;PMS_P1;PMS_P2;Temp;Humidity;BMP_temperature;BMP_pressure;BME280_temperature;BME280_humidity;BME280_pressure;Samples;Min_cycle;Max_cycle;Signal;HPM_P1;HPM_P2
2023/10/19 00:00:39;;;;;;;;;;;13.00;99.90;;;12.52;100.00;95746.41;5031743;28;1605;-73
2023/10/19 00:03:06;;;;;;;;;;;13.10;99.90;;;12.60;100.00;95738.03;5014321;28;1902;-74
2023/10/19 00:05:33;;;;;;;;;;;13.10;99.90;;;12.62;100.00;95736.94;5009794;28;1628;-74
2023/10/19 00:08:05;;;;;;;;;;;13.20;99.90;;;12.75;100.00;95739.41;5030159;28;1587;-73
2023/10/19 00:10:35;;;;;;;;;;;13.20;99.90;;;12.87;100.00;95746.22;5030457;28;1959;-74
2023/10/19 00:13:05;;;;;;;;;;;13.30;99.90;;;12.84;100.00;95743.88;5045042;28;1605;-72
2023/10/19 00:16:16;;;;;;;;;;;13.40;99.90;;;12.77;100.00;95738.31;5044728;28;1832;-74
2023/10/19 00:18:24;;;;;;;;;;;13.40;99.90;;;12.83;100.00;95725.75;5033184;28;1909;-74
2023/10/19 00:20:53;;;;;;;;;;;13.40;99.90;;;12.81;100.00;95727.66;5024023;28;1767;-75
2023/10/19 00:23:34;;;;;;;;;;;13.40;99.90;;;12.82;100.00;95711.06;5026509;28;1906;-74
2023/10/19 00:26:17;;;;;;;;;;;13.40;99.90;;;12.83;100.00;95715.34;5046342;28;1543;-74
2023/10/19 00:28:46;;;;;;;;;;;13.40;99.90;;;12.74;100.00;95709.09;5039843;28;1756;-74
2023/10/19 00:31:13;;;;;;;;;;;13.40;99.90;;;12.86;100.00;95707.25;5022486;28;1635;-74
2023/10/19 00:33:40;;;;;;;;;;;13.50;99.90;;;12.92;100.00;95696.34;5041799;28;1582;-73
2023/10/19 00:36:08;;;;;;;;;;;13.50;99.90;;;12.93;100.00;95701.44;5041037;28;1760;-74
2023/10/19 00:41:11;;;;;;;;;;;13.50;99.90;;;12.95;100.00;95685.69;5024277;28;1809;-73
2023/10/19 00:43:43;;;;;;;;;;;13.50;99.90;;;12.96;100.00;95674.31;5025634;28;1942;-74
2023/10/19 00:49:09;;;;;;;;;;;13.60;99.90;;;12.96;100.00;95667.34;5035738;28;1716;-74
2023/10/19 00:54:40;;;;;;;;;;;13.60;99.90;;;13.16;100.00;95651.84;5027405;28;1480;-72
2023/10/19 00:57:10;;;;;;;;;;;13.60;99.90;;;13.15;100.00;95653.59;5018272;28;1549;-73
2023/10/19 00:59:48;;;;;;;;;;;13.70;99.90;;;13.21;100.00;95657.50;5010025;28;1492;-74
2023/10/19 01:02:28;;;;;;;;;;;13.70;99.90;;;13.22;100.00;95656.53;5028161;28;1765;-74
2023/10/19 01:05:00;;;;;;;;;;;13.80;99.90;;;13.27;100.00;95656.13;5025515;28;1913;-73
2023/10/19 01:07:29;;;;;;;;;;;13.80;99.90;;;13.30;100.00;95658.53;5017344;28;1276;-73
2023/10/19 01:09:59;;;;;;;;;;;13.80;99.90;;;13.29;100.00;95652.47;5027176;28;1257;-74
2023/10/19 01:12:33;;;;;;;;;;;13.90;99.90;;;13.30;100.00;95650.72;5023224;28;1410;-74
2023/10/19 01:15:06;;;;;;;;;;;13.90;99.90;;;13.28;100.00;95648.22;5023824;28;1458;-72
2023/10/19 01:17:38;;;;;;;;;;;13.90;99.90;;;13.37;100.00;95655.28;5026157;28;1622;-73
2023/10/19 01:20:17;;;;;;;;;;;13.90;99.90;;;13.31;100.00;95655.78;5023392;28;1399;-74
2023/10/19 01:25:59;;;;;;;;;;;13.90;99.90;;;13.36;100.00;95661.44;5022987;28;1592;-74
2023/10/19 01:28:48;;;;;;;;;;;13.90;99.90;;;13.36;100.00;95661.44;5037926;28;1267;-74
2023/10/19 01:31:22;;;;;;;;;;;13.90;99.90;;;13.47;100.00;95664.91;5009681;28;1300;-74
2023/10/19 01:33:50;;;;;;;;;;;13.90;99.90;;;13.46;100.00;95665.88;5011481;28;1545;-73
2023/10/19 01:36:24;;;;;;;;;;;13.90;99.90;;;13.52;100.00;95662.72;5010423;28;1339;-73
2023/10/19 01:38:55;;;;;;;;;;;13.90;99.90;;;13.45;100.00;95661.59;5043263;28;1438;-73
2023/10/19 01:41:24;;;;;;;;;;;13.90;99.90;;;13.45;100.00;95662.44;5041539;28;1424;-73
2023/10/19 01:43:56;;;;;;;;;;;14.00;99.90;;;13.51;100.00;95661.91;5044516;28;1913;-71
2023/10/19 01:46:24;;;;;;;;;;;14.00;99.90;;;13.53;100.00;95665.22;5034667;28;1390;-73
2023/10/19 01:48:55;;;;;;;;;;;14.00;99.90;;;13.63;100.00;95680.91;5028925;28;1565;-73
2023/10/19 01:51:28;;;;;;;;;;;14.00;99.90;;;13.63;100.00;95667.03;5041773;28;1401;-73
2023/10/19 01:53:56;;;;;;;;;;;14.00;99.90;;;13.59;100.00;95671.69;5025494;28;1354;-74
2023/10/19 01:56:24;;;;;;;;;;;14.00;99.90;;;13.57;100.00;95669.22;5012043;28;1739;-73
2023/10/19 01:58:51;;;;;;;;;;;14.00;99.90;;;13.67;100.00;95671.03;5048414;28;1442;-74
2023/10/19 02:01:20;;;;;;;;;;;14.00;99.90;;;13.59;100.00;95662.09;5027936;28;1435;-72
2023/10/19 02:03:54;;;;;;;;;;;14.00;99.90;;;13.67;100.00;95664.03;5024103;28;1973;-74
2023/10/19 02:06:26;;;;;;;;;;;14.00;99.90;;;13.67;100.00;95663.22;5026608;28;1425;-74
2023/10/19 02:09:09;;;;;;;;;;;14.00;99.90;;;13.71;100.00;95667.22;5030313;28;1410;-74
2023/10/19 02:11:41;;;;;;;;;;;14.00;99.90;;;13.66;100.00;95672.84;5028919;28;1419;-74
2023/10/19 02:14:14;;;;;;;;;;;14.00;99.90;;;13.68;100.00;95670.06;5025382;28;1585;-74
2023/10/19 02:16:43;;;;;;;;;;;14.10;99.90;;;13.80;100.00;95664.66;5044577;28;1533;-73
2023/10/19 02:19:10;;;;;;;;;;;14.10;99.90;;;13.83;100.00;95668.75;5027990;28;1398;-73
2023/10/19 02:21:40;;;;;;;;;;;14.10;99.90;;;13.79;100.00;95672.59;5027076;28;1406;-73
2023/10/19 02:24:08;;;;;;;;;;;14.10;99.90;;;13.79;100.00;95668.19;5024938;28;1914;-71
2023/10/19 02:26:37;;;;;;;;;;;14.20;99.90;;;13.74;100.00;95669.56;5042918;28;1774;-74
2023/10/19 02:29:09;;;;;;;;;;;14.20;99.90;;;13.74;100.00;95662.56;5014551;28;1386;-74
2023/10/19 02:31:40;;;;;;;;;;;14.20;99.90;;;13.73;100.00;95662.69;5027807;28;1375;-72
2023/10/19 02:34:11;;;;;;;;;;;14.20;99.90;;;13.78;100.00;95661.34;5008476;28;1656;-70
2023/10/19 02:36:39;;;;;;;;;;;14.20;99.90;;;13.85;100.00;95660.81;5027287;28;1472;-74
2023/10/19 02:39:13;;;;;;;;;;;14.20;99.90;;;13.85;100.00;95661.63;5022711;28;1397;-70
2023/10/19 02:41:48;;;;;;;;;;;14.20;99.90;;;13.74;100.00;95661.72;5046884;28;1443;-73
2023/10/19 02:44:22;;;;;;;;;;;14.20;99.90;;;13.73;100.00;95662.69;5014692;28;1989;-73
2023/10/19 02:46:51;;;;;;;;;;;14.20;99.90;;;13.75;100.00;95661.63;5033004;28;1756;-74
2023/10/19 02:49:21;;;;;;;;;;;14.20;99.90;;;13.75;100.00;95660.75;5047086;28;1956;-73
2023/10/19 02:51:49;;;;;;;;;;;14.20;99.90;;;13.71;100.00;95659.41;5014944;28;1593;-74
2023/10/19 02:54:24;;;;;;;;;;;14.20;99.90;;;13.72;100.00;95661.84;5031556;28;1498;-72
2023/10/19 02:56:53;;;;;;;;;;;14.20;99.90;;;13.82;100.00;95654.06;5028032;28;1413;-73
2023/10/19 02:59:23;;;;;;;;;;;14.20;99.90;;;13.76;100.00;95647.59;5017471;28;1574;-74
2023/10/19 03:02:07;;;;;;;;;;;14.20;99.90;;;13.82;100.00;95648.84;5048956;28;1418;-74
2023/10/19 03:04:53;;;;;;;;;;;14.30;99.90;;;13.84;100.00;95633.06;5033433;28;1983;-74
2023/10/19 03:07:20;;;;;;;;;;;14.30;99.90;;;13.89;100.00;95636.09;5048623;28;1678;-74
2023/10/19 03:09:53;;;;;;;;;;;14.30;99.90;;;13.85;100.00;95637.34;5048187;28;1635;-73
2023/10/19 03:12:25;;;;;;;;;;;14.30;99.90;;;13.88;100.00;95630.06;5043709;28;1568;-73
2023/10/19 03:14:52;;;;;;;;;;;14.30;99.90;;;13.89;100.00;95639.56;5027003;28;1452;-74
2023/10/19 03:17:19;;;;;;;;;;;14.30;99.90;;;13.87;100.00;95638.88;5045786;28;1482;-74
2023/10/19 03:19:48;;;;;;;;;;;14.30;99.90;;;13.87;100.00;95633.66;5049031;28;1457;-74
2023/10/19 03:22:16;;;;;;;;;;;14.30;99.90;;;13.85;100.00;95621.72;5029096;28;1368;-74
2023/10/19 03:24:43;;;;;;;;;;;14.30;99.90;;;13.85;100.00;95626.91;5045188;28;1902;-73
2023/10/19 03:29:46;;;;;;;;;;;14.30;99.90;;;13.83;100.00;95623.63;5028647;28;1437;-74
2023/10/19 03:32:15;;;;;;;;;;;14.30;99.90;;;13.93;100.00;95612.22;5033458;28;1442;-74
2023/10/19 03:34:47;;;;;;;;;;;14.30;99.90;;;13.93;100.00;95620.06;5036857;28;1695;-74
2023/10/19 03:37:14;;;;;;;;;;;14.30;99.90;;;13.92;100.00;95613.19;5041634;28;1284;-74
2023/10/19 03:39:42;;;;;;;;;;;14.30;99.90;;;13.97;100.00;95611.00;5026229;28;1339;-74
2023/10/19 03:42:09;;;;;;;;;;;14.30;99.90;;;14.02;100.00;95602.78;5031630;28;1429;-74
2023/10/19 03:47:19;;;;;;;;;;;14.30;99.90;;;14.05;100.00;95596.47;5043419;28;1346;-74
2023/10/19 03:49:47;;;;;;;;;;;14.40;99.90;;;13.93;100.00;95593.97;5028677;28;1341;-73
2023/10/19 03:54:41;;;;;;;;;;;14.40;99.90;;;13.99;100.00;95588.22;5044640;28;1429;-74
2023/10/19 03:57:11;;;;;;;;;;;14.40;99.90;;;13.95;100.00;95578.19;5044983;28;1390;-72
2023/10/19 03:59:39;;;;;;;;;;;14.50;99.90;;;13.94;100.00;95582.59;5044714;28;1410;-73
2023/10/19 04:02:20;;;;;;;;;;;14.40;99.90;;;13.97;100.00;95576.28;5017425;28;1434;-74
2023/10/19 04:04:48;;;;;;;;;;;14.50;99.90;;;14.03;100.00;95583.56;5028871;28;1902;-73
2023/10/19 04:07:37;;;;;;;;;;;14.50;99.90;;;14.15;100.00;95579.06;5045070;28;1421;-73
2023/10/19 04:12:35;;;;;;;;;;;14.60;99.90;;;14.17;100.00;95574.53;5034922;28;1435;-73
2023/10/19 04:17:42;;;;;;;;;;;14.60;99.90;;;14.32;100.00;95554.91;5045592;28;1458;-73
2023/10/19 04:22:50;;;;;;;;;;;14.70;99.90;;;14.32;100.00;95570.56;5045005;28;1342;-73
2023/10/19 04:25:18;;;;;;;;;;;14.70;99.90;;;14.31;100.00;95579.31;5029452;28;1980;-71
2023/10/19 04:27:48;;;;;;;;;;;14.70;99.90;;;14.33;100.00;95581.81;5028836;28;1658;-73
2023/10/19 04:30:16;;;;;;;;;;;14.70;99.90;;;14.28;100.00;95570.94;5033571;28;1340;-73
2023/10/19 04:32:44;;;;;;;;;;;14.70;99.90;;;14.29;100.00;95575.22;5028317;28;1613;-73
2023/10/19 04:35:14;;;;;;;;;;;14.70;99.90;;;14.36;100.00;95577.13;5036734;28;1467;-73
2023/10/19 04:37:42;;;;;;;;;;;14.70;99.90;;;14.37;100.00;95575.34;5031298;28;1319;-73
2023/10/19 04:40:10;;;;;;;;;;;14.70;99.90;;;14.49;100.00;95573.44;5046669;28;1388;-72
2023/10/19 04:42:38;;;;;;;;;;;14.70;99.90;;;14.41;100.00;95574.94;5033425;28;1430;-74
2023/10/19 04:45:05;;;;;;;;;;;14.70;99.90;;;14.39;100.00;95571.66;5033319;28;1994;-74
2023/10/19 04:47:35;;;;;;;;;;;14.70;99.90;;;14.43;100.00;95578.22;5029740;28;1372;-73
2023/10/19 04:50:07;;;;;;;;;;;14.70;99.90;;;14.53;100.00;95572.16;5046544;28;1326;-74
2023/10/19 04:52:33;;;;;;;;;;;14.70;99.90;;;14.41;100.00;95568.88;5013022;28;1411;-74
2023/10/19 04:55:01;;;;;;;;;;;14.70;99.90;;;14.33;100.00;95568.75;5013568;28;1394;-74
2023/10/19 04:57:28;;;;;;;;;;;14.80;99.90;;;14.50;100.00;95560.22;5041554;28;1362;-73
2023/10/19 04:59:55;;;;;;;;;;;14.80;99.90;;;14.44;100.00;95572.06;5033345;28;1366;-74
2023/10/19 05:02:24;;;;;;;;;;;14.70;99.90;;;14.46;100.00;95571.06;5026511;28;1382;-74
2023/10/19 05:04:51;;;;;;;;;;;14.80;99.90;;;14.38;100.00;95577.00;5011834;28;1910;-72
2023/10/19 05:07:18;;;;;;;;;;;14.80;99.90;;;14.35;100.00;95572.06;5044955;28;1544;-74
2023/10/19 05:09:46;;;;;;;;;;;14.80;99.90;;;14.37;100.00;95570.13;5024558;28;1620;-74
2023/10/19 05:12:14;;;;;;;;;;;14.80;99.90;;;14.39;100.00;95569.03;5029926;28;1608;-74
2023/10/19 05:14:42;;;;;;;;;;;14.80;99.90;;;14.38;100.00;95569.97;5031161;28;1389;-73
2023/10/19 05:17:09;;;;;;;;;;;14.80;99.90;;;14.35;100.00;95572.88;5025404;28;1461;-74
2023/10/19 05:19:38;;;;;;;;;;;14.80;99.90;;;14.40;100.00;95572.47;5028574;28;1774;-74
2023/10/19 05:22:07;;;;;;;;;;;14.80;99.90;;;14.50;100.00;95578.50;5028618;28;1849;-74
2023/10/19 05:24:34;;;;;;;;;;;14.90;99.90;;;14.45;100.00;95585.91;5019199;28;1906;-73
2023/10/19 05:27:02;;;;;;;;;;;14.80;99.90;;;14.38;100.00;95577.81;5025497;28;1778;-73
2023/10/19 05:29:32;;;;;;;;;;;14.80;99.90;;;14.40;100.00;95573.28;5041569;28;1385;-74
2023/10/19 05:32:00;;;;;;;;;;;14.80;99.90;;;14.40;100.00;95578.50;5045845;28;1454;-74
2023/10/19 05:34:29;;;;;;;;;;;14.90;99.90;;;14.52;100.00;95576.56;5028734;28;1418;-74
2023/10/19 05:36:58;;;;;;;;;;;14.80;99.90;;;14.41;100.00;95582.78;5027871;28;1394;-73
2023/10/19 05:39:27;;;;;;;;;;;14.80;99.90;;;14.32;100.00;95574.94;5027733;28;1572;-74
2023/10/19 05:42:00;;;;;;;;;;;14.70;99.90;;;14.27;100.00;95571.91;5028691;28;1513;-73
2023/10/19 05:44:31;;;;;;;;;;;14.80;99.90;;;14.29;100.00;95577.81;5044012;28;1902;-74
2023/10/19 05:46:59;;;;;;;;;;;14.70;99.90;;;14.38;100.00;95572.59;5044214;28;1461;-72
2023/10/19 05:49:28;;;;;;;;;;;14.70;99.90;;;14.22;100.00;95578.34;5047909;28;2005;-74
2023/10/19 05:51:56;;;;;;;;;;;14.70;99.90;;;14.29;100.00;95577.81;5040587;28;1466;-74
2023/10/19 05:54:23;;;;;;;;;;;14.70;99.90;;;14.29;100.00;95581.25;5028740;28;1351;-73
2023/10/19 05:56:52;;;;;;;;;;;14.70;99.90;;;14.37;100.00;95583.19;5013032;28;1470;-73
2023/10/19 05:59:19;;;;;;;;;;;14.70;99.90;;;14.25;100.00;95573.81;5027065;28;1324;-74
2023/10/19 06:01:47;;;;;;;;;;;14.70;99.90;;;14.22;100.00;95577.53;5018672;28;1304;-74
2023/10/19 06:04:15;;;;;;;;;;;14.70;99.90;;;14.28;100.00;95566.56;5032213;28;1295;-74
2023/10/19 06:06:47;;;;;;;;;;;14.70;99.90;;;14.33;100.00;95576.59;5031903;28;1307;-74
2023/10/19 06:09:15;;;;;;;;;;;14.70;99.90;;;14.35;100.00;95577.28;5031504;28;1364;-74
2023/10/19 06:11:42;;;;;;;;;;;14.60;99.90;;;14.23;100.00;95579.19;5012840;28;1462;-73
2023/10/19 06:14:10;;;;;;;;;;;14.70;99.90;;;14.22;100.00;95575.75;5014261;28;1017;-73
2023/10/19 06:16:37;;;;;;;;;;;14.70;99.90;;;14.27;100.00;95595.41;5042736;28;997;-74
2023/10/19 06:19:07;;;;;;;;;;;14.70;99.90;;;14.29;100.00;95583.03;5025973;28;1400;-73
2023/10/19 06:21:34;;;;;;;;;;;14.70;99.90;;;14.31;100.00;95591.56;5025748;28;2018;-72
2023/10/19 06:24:02;;;;;;;;;;;14.70;99.90;;;14.23;100.00;95581.78;5011177;28;1347;-74
2023/10/19 06:26:30;;;;;;;;;;;14.70;99.90;;;14.29;100.00;95589.06;5023490;28;1979;-73
2023/10/19 06:28:59;;;;;;;;;;;14.70;99.90;;;14.25;100.00;95590.31;5026216;28;1417;-72
2023/10/19 06:31:28;;;;;;;;;;;14.60;99.90;;;14.20;100.00;95584.69;5033512;28;4831;-73
2023/10/19 06:33:57;;;;;;;;;;;14.60;99.90;;;14.17;100.00;95582.34;5026070;28;1451;-73
2023/10/19 06:36:24;;;;;;;;;;;14.70;99.90;;;14.25;100.00;95599.94;5029046;28;1413;-73
2023/10/19 06:38:51;;;;;;;;;;;14.60;99.90;;;14.34;100.00;95596.50;5021411;28;4528;-73
2023/10/19 06:41:18;;;;;;;;;;;14.60;99.90;;;14.24;100.00;95593.88;5037968;28;1443;-73
2023/10/19 06:43:46;;;;;;;;;;;14.70;99.90;;;14.28;100.00;95599.63;5040863;28;1361;-74
2023/10/19 06:46:14;;;;;;;;;;;14.60;99.90;;;14.34;100.00;95591.28;5020422;28;1903;-73
2023/10/19 06:48:42;;;;;;;;;;;14.70;99.90;;;14.26;100.00;95591.97;5024764;28;1435;-72
2023/10/19 06:51:09;;;;;;;;;;;14.70;99.90;;;14.29;100.00;95594.28;5009368;28;1398;-71
2023/10/19 06:53:36;;;;;;;;;;;14.70;99.90;;;14.36;100.00;95605.00;5026215;28;1118;-74
2023/10/19 06:56:04;;;;;;;;;;;14.70;99.90;;;14.34;100.00;95586.06;5005616;28;1063;-74
2023/10/19 06:58:31;;;;;;;;;;;14.70;99.90;;;14.32;100.00;95599.25;5033092;28;1369;-73
2023/10/19 07:01:05;;;;;;;;;;;14.80;99.90;;;14.34;100.00;95588.66;5023230;28;1374;-73
2023/10/19 07:03:32;;;;;;;;;;;14.80;99.90;;;14.39;100.00;95584.69;5042895;28;1147;-74
2023/10/19 07:06:02;;;;;;;;;;;14.80;99.90;;;14.39;100.00;95584.69;5039685;28;1910;-73
2023/10/19 07:08:34;;;;;;;;;;;14.80;99.90;;;14.47;100.00;95581.38;5041119;28;1106;-74
2023/10/19 07:11:02;;;;;;;;;;;14.80;99.90;;;14.51;100.00;95577.53;5042465;28;1383;-73
2023/10/19 07:13:32;;;;;;;;;;;14.90;99.90;;;14.51;100.00;95576.72;5039085;28;1193;-73
2023/10/19 07:16:00;;;;;;;;;;;14.90;99.90;;;14.53;100.00;95588.69;5040612;28;1043;-73
2023/10/19 07:18:28;;;;;;;;;;;14.90;99.90;;;14.51;100.00;95590.59;5006957;28;1172;-73
2023/10/19 07:21:02;;;;;;;;;;;14.90;99.90;;;14.47;100.00;95597.06;5039857;28;1453;-73
2023/10/19 07:23:30;;;;;;;;;;;14.90;99.90;;;14.65;100.00;95607.66;5040680;28;1720;-73
2023/10/19 07:25:59;;;;;;;;;;;14.90;99.90;;;14.46;100.00;95605.84;5032512;28;1902;-73
2023/10/19 07:28:27;;;;;;;;;;;14.90;99.90;;;14.50;100.00;95611.59;5042321;28;1307;-73
2023/10/19 07:30:55;;;;;;;;;;;14.90;99.90;;;14.56;100.00;95608.50;5043799;28;1390;-74
2023/10/19 07:33:24;;;;;;;;;;;14.90;99.90;;;14.41;100.00;95601.03;5015864;28;1379;-72
2023/10/19 07:35:54;;;;;;;;;;;14.90;99.90;;;14.59;100.00;95616.84;5027130;28;1023;-74
2023/10/19 07:38:22;;;;;;;;;;;14.90;99.90;;;14.64;100.00;95612.06;5042401;28;1277;-72
2023/10/19 07:40:52;;;;;;;;;;;14.90;99.90;;;14.54;100.00;95608.63;5028055;28;1078;-74
2023/10/19 07:43:21;;;;;;;;;;;14.90;99.90;;;14.49;100.00;95605.56;5041420;28;2017;-74
2023/10/19 07:45:49;;;;;;;;;;;14.90;99.90;;;14.53;100.00;95608.72;5044489;28;1918;-74
2023/10/19 07:48:16;;;;;;;;;;;14.90;99.90;;;14.58;100.00;95614.41;5031666;28;993;-73
2023/10/19 07:50:44;;;;;;;;;;;14.90;99.90;;;14.63;100.00;95613.00;5030090;28;1021;-74
2023/10/19 07:53:11;;;;;;;;;;;15.00;99.90;;;14.62;100.00;95619.22;5045132;28;1386;-73
2023/10/19 07:55:39;;;;;;;;;;;14.90;99.90;;;14.67;100.00;95621.41;5033281;28;939;-74
2023/10/19 07:58:06;;;;;;;;;;;15.00;99.90;;;14.70;100.00;95613.28;5044090;28;1565;-74
2023/10/19 08:00:34;;;;;;;;;;;15.00;99.90;;;14.83;100.00;95610.38;5047492;28;1139;-74
2023/10/19 08:03:02;;;;;;;;;;;15.10;99.90;;;14.82;100.00;95606.13;5031717;28;1387;-71
2023/10/19 08:05:30;;;;;;;;;;;15.20;99.90;;;14.95;100.00;95603.22;5008242;28;1906;-74
2023/10/19 08:07:59;;;;;;;;;;;15.20;99.90;;;15.06;100.00;95605.66;5026887;28;1168;-74
2023/10/19 08:10:26;;;;;;;;;;;15.20;99.90;;;14.83;100.00;95613.00;5043836;28;969;-74
2023/10/19 08:12:55;;;;;;;;;;;15.20;99.90;;;14.89;100.00;95611.59;5026910;28;1281;-74
2023/10/19 08:15:22;;;;;;;;;;;15.20;99.90;;;14.99;100.00;95618.47;5041905;28;1268;-74
2023/10/19 08:17:52;;;;;;;;;;;15.20;99.90;;;14.91;100.00;95614.91;5043709;28;1229;-74
2023/10/19 08:20:23;;;;;;;;;;;15.20;99.90;;;15.07;100.00;95620.38;5042833;28;1308;-73
2023/10/19 08:22:53;;;;;;;;;;;15.30;99.90;;;15.11;100.00;95620.91;5029156;28;1417;-73
2023/10/19 08:25:20;;;;;;;;;;;15.40;99.90;;;15.14;100.00;95628.47;5027357;28;1975;-74
2023/10/19 08:27:50;;;;;;;;;;;15.40;99.90;;;15.26;100.00;95635.19;5045408;28;1085;-73
2023/10/19 08:30:20;;;;;;;;;;;15.40;99.90;;;15.26;100.00;95636.00;5036724;28;1081;-74
2023/10/19 08:32:52;;;;;;;;;;;15.50;99.90;;;15.51;100.00;95635.50;5025123;28;1388;-73
2023/10/19 08:35:24;;;;;;;;;;;15.70;99.90;;;15.67;100.00;95648.81;5004783;28;1429;-73
2023/10/19 08:37:57;;;;;;;;;;;15.90;99.90;;;15.99;100.00;95651.03;5045357;28;1052;-74
2023/10/19 08:40:28;;;;;;;;;;;16.10;99.90;;;16.16;100.00;95643.38;5023349;28;1111;-73
2023/10/19 08:42:55;;;;;;;;;;;16.20;99.90;;;16.19;100.00;95649.09;5040323;28;1364;-73
2023/10/19 08:45:22;;;;;;;;;;;16.20;99.90;;;15.91;100.00;95639.66;5033326;28;1938;-74
2023/10/19 08:47:56;;;;;;;;;;;16.20;99.90;;;16.30;100.00;95635.00;5011889;28;1378;-73
2023/10/19 08:50:31;;;;;;;;;;;16.30;99.90;;;16.47;100.00;95623.72;5029744;28;1276;-74
2023/10/19 08:52:59;;;;;;;;;;;16.40;99.90;;;16.45;100.00;95619.59;5013064;28;1230;-75
2023/10/19 08:55:27;;;;;;;;;;;16.40;99.90;;;16.37;100.00;95617.72;5043776;28;1062;-74
2023/10/19 08:58:00;;;;;;;;;;;16.50;99.90;;;16.40;100.00;95613.97;5031272;28;1333;-71
2023/10/19 09:00:27;;;;;;;;;;;16.60;99.90;;;16.50;100.00;95614.75;5024491;28;1434;-73
2023/10/19 09:02:56;;;;;;;;;;;16.60;99.90;;;16.49;100.00;95613.94;5038284;28;1603;-74
2023/10/19 09:05:25;;;;;;;;;;;16.80;99.90;;;16.45;100.00;95606.53;5018951;28;1902;-72
2023/10/19 09:07:56;;;;;;;;;;;16.80;99.90;;;16.52;100.00;95610.19;5039076;28;1507;-74
2023/10/19 09:10:28;;;;;;;;;;;16.90;99.90;;;16.55;100.00;95615.09;5024365;28;1098;-74
2023/10/19 09:13:02;;;;;;;;;;;16.80;99.90;;;16.58;100.00;95606.97;5043927;28;1435;-74
2023/10/19 09:15:34;;;;;;;;;;;16.90;99.90;;;16.71;100.00;95599.53;5025228;28;1392;-73
2023/10/19 09:18:22;;;;;;;;;;;16.90;99.90;;;16.54;100.00;95610.84;5037232;28;1083;-74
2023/10/19 09:21:01;;;;;;;;;;;16.90;99.90;;;16.27;100.00;95606.50;5041793;28;1363;-75
2023/10/19 09:23:30;;;;;;;;;;;16.80;99.90;;;16.41;100.00;95611.22;5032069;28;1144;-74
2023/10/19 09:26:02;;;;;;;;;;;16.70;99.90;;;16.23;100.00;95618.25;5024836;28;1977;-73
2023/10/19 09:28:29;;;;;;;;;;;16.60;99.90;;;16.22;100.00;95619.22;5024784;28;1068;-74
2023/10/19 09:30:57;;;;;;;;;;;16.60;99.90;;;16.44;100.00;95616.16;5027881;28;1146;-74
2023/10/19 09:33:24;;;;;;;;;;;16.70;99.90;;;16.40;100.00;95619.22;5026198;28;1158;-73
2023/10/19 09:35:53;;;;;;;;;;;16.70;99.90;;;16.64;100.00;95618.63;5031219;28;1336;-75
2023/10/19 09:38:24;;;;;;;;;;;16.90;99.90;;;16.67;100.00;95611.31;5025910;28;1056;-71
2023/10/19 09:40:54;;;;;;;;;;;17.10;99.90;;;16.65;100.00;95610.63;5013483;28;1178;-74
2023/10/19 09:43:35;;;;;;;;;;;17.10;99.90;;;16.90;100.00;95613.44;5026388;28;1086;-75
2023/10/19 09:46:07;;;;;;;;;;;17.20;99.90;;;17.00;100.00;95610.75;5015917;28;1975;-74
2023/10/19 09:48:41;;;;;;;;;;;17.20;99.90;;;17.14;100.00;95607.56;5029761;28;1316;-74
2023/10/19 09:51:09;;;;;;;;;;;17.30;99.90;;;16.84;100.00;95611.47;5028793;28;1469;-75
2023/10/19 09:53:48;;;;;;;;;;;17.20;99.90;;;16.89;100.00;95617.06;5046116;28;1084;-73
2023/10/19 09:56:21;;;;;;;;;;;17.30;99.90;;;17.00;100.00;95605.50;5034576;28;971;-75
2023/10/19 09:58:55;;;;;;;;;;;17.30;99.90;;;17.09;100.00;95613.28;5029107;28;988;-75
2023/10/19 10:01:23;;;;;;;;;;;17.40;99.90;;;17.09;100.00;95617.69;5028367;28;1356;-75
2023/10/19 10:03:51;;;;;;;;;;;17.40;99.90;;;17.21;100.00;95615.63;5044029;28;1564;-75
2023/10/19 10:06:30;;;;;;;;;;;17.40;99.90;;;17.20;100.00;95616.63;5031020;28;2005;-75
2023/10/19 10:09:00;;;;;;;;;;;17.40;99.90;;;17.13;100.00;95621.66;5028862;28;1422;-75
2023/10/19 10:11:27;;;;;;;;;;;17.50;99.90;;;17.18;100.00;95611.53;5036634;28;1434;-74
2023/10/19 10:13:56;;;;;;;;;;;17.50;99.90;;;17.09;100.00;95604.59;5035039;28;1444;-74
2023/10/19 10:16:26;;;;;;;;;;;17.50;99.90;;;17.09;100.00;95607.22;5023403;28;1537;-73
2023/10/19 10:19:01;;;;;;;;;;;17.60;99.90;;;17.04;100.00;95614.72;5041860;28;1264;-74
2023/10/19 10:21:29;;;;;;;;;;;17.50;99.90;;;17.02;100.00;95607.00;5030845;28;1467;-75
2023/10/19 10:23:59;;;;;;;;;;;17.50;99.90;;;16.91;100.00;95608.06;5026903;28;1384;-75
2023/10/19 10:26:30;;;;;;;;;;;17.40;99.90;;;16.97;100.00;95614.50;5034212;28;1902;-75
2023/10/19 10:29:13;;;;;;;;;;;17.40;99.90;;;17.07;100.00;95620.47;5026209;28;1396;-74
2023/10/19 10:31:44;;;;;;;;;;;17.50;99.90;;;17.22;100.00;95615.50;5025588;28;1695;-76
2023/10/19 10:34:34;;;;;;;;;;;17.40;99.90;;;17.25;100.00;95614.34;5012657;28;1461;-74
2023/10/19 10:37:08;;;;;;;;;;;17.50;99.90;;;16.85;100.00;95616.53;5039711;28;1370;-73
2023/10/19 10:39:38;;;;;;;;;;;17.50;99.90;;;17.10;100.00;95609.66;5030156;28;1504;-75
2023/10/19 10:42:07;;;;;;;;;;;17.50;99.90;;;17.11;100.00;95606.06;5012703;28;1443;-75
2023/10/19 10:44:45;;;;;;;;;;;17.40;99.90;;;16.97;100.00;95604.03;5029081;28;1483;-75
2023/10/19 10:47:16;;;;;;;;;;;17.40;99.90;;;17.01;100.00;95612.38;5028065;28;1906;-75
2023/10/19 10:49:51;;;;;;;;;;;17.40;99.90;;;16.87;100.00;95614.56;5043470;28;1416;-74
2023/10/19 10:52:25;;;;;;;;;;;17.40;99.90;;;16.80;100.00;95610.09;5020857;28;1723;-74
2023/10/19 10:54:52;;;;;;;;;;;17.30;99.90;;;16.77;100.00;95611.22;5042124;28;1391;-75
2023/10/19 10:57:20;;;;;;;;;;;17.30;99.90;;;16.48;100.00;95609.63;5005842;28;1346;-74
2023/10/19 10:59:47;;;;;;;;;;;17.20;99.90;;;16.56;100.00;95608.06;5025338;28;1412;-72
2023/10/19 11:02:21;;;;;;;;;;;17.10;99.90;;;16.43;100.00;95614.50;5015246;28;1436;-74
2023/10/19 11:04:48;;;;;;;;;;;17.10;99.90;;;16.38;100.00;95605.47;5048312;28;1422;-74
2023/10/19 11:07:22;;;;;;;;;;;17.00;99.90;;;16.31;100.00;95608.69;5041985;28;1910;-76
2023/10/19 11:09:49;;;;;;;;;;;16.90;99.90;;;16.09;100.00;95614.34;5045176;28;1802;-72
2023/10/19 11:12:16;;;;;;;;;;;16.70;99.90;;;15.79;100.00;95610.25;5047519;28;1393;-76
2023/10/19 11:14:58;;;;;;;;;;;16.50;99.90;;;15.69;100.00;95605.84;5044219;28;1444;-76
2023/10/19 11:17:32;;;;;;;;;;;16.40;99.90;;;15.60;100.00;95608.50;5043169;28;1470;-77
2023/10/19 11:20:03;;;;;;;;;;;16.20;99.90;;;15.55;100.00;95614.16;5037740;28;1425;-75
2023/10/19 11:22:31;;;;;;;;;;;16.10;99.90;;;15.55;100.00;95590.63;5028774;28;1371;-75
2023/10/19 11:25:17;;;;;;;;;;;16.00;99.90;;;15.53;100.00;95587.34;5041195;28;1325;-75
2023/10/19 11:27:44;;;;;;;;;;;15.90;99.90;;;15.37;100.00;95593.22;5031139;28;2319;-73
2023/10/19 11:30:12;;;;;;;;;;;15.80;99.90;;;15.24;100.00;95598.75;5026571;28;1497;-74
2023/10/19 11:32:39;;;;;;;;;;;15.70;99.90;;;15.24;100.00;95601.34;5029474;28;1383;-74
2023/10/19 11:35:07;;;;;;;;;;;15.50;99.90;;;15.13;100.00;95600.69;5046978;28;1390;-75
2023/10/19 11:37:50;;;;;;;;;;;15.50;99.90;;;15.16;100.00;95598.63;5008486;28;1398;-72
2023/10/19 11:40:19;;;;;;;;;;;15.50;99.90;;;15.20;100.00;95604.41;5042539;28;1541;-76
2023/10/19 11:42:46;;;;;;;;;;;15.50;99.90;;;15.19;100.00;95600.13;5045312;28;2019;-74
2023/10/19 11:45:14;;;;;;;;;;;15.50;99.90;;;15.33;100.00;95612.75;5008835;28;1449;-75
2023/10/19 11:47:41;;;;;;;;;;;15.50;99.90;;;15.32;100.00;95615.50;5048112;28;1902;-75
2023/10/19 11:50:12;;;;;;;;;;;15.50;99.90;;;15.35;100.00;95623.88;5044584;28;1436;-74
2023/10/19 11:52:40;;;;;;;;;;;15.50;99.90;;;15.30;100.00;95622.66;5041734;28;1428;-75
2023/10/19 11:55:10;;;;;;;;;;;15.50;99.90;;;15.37;100.00;95631.56;5026468;28;1248;-74
2023/10/19 11:57:37;;;;;;;;;;;15.50;99.90;;;15.34;100.00;95627.44;5041532;28;1398;-73